Osterild, Denmark
Current Conditions -  °F | °C
As of 5:20 PM on Saturday 20 Dec 2014 (Local Time) from EKYT Reporting Station
Few Clouds Few Clouds  
Wind Chill: 33°   Ceiling: Unl
Heat Index: 41°   Visibility: 6mi
Dew Point: 32°   Wind: 15mph
Humidity: 70%   Direction: 300°WNW
Pressure: 29.5"   Gusts: NA
Location:  57.03°N, 8.86°E
Report Text: EKYT 201620Z 30013KT 9999 FEW025 05/00 Q0999
Loading
Personal Weather Stations






























Interactive Weather Map New forecast layout! Learn more

10-Day Weather Forecast

Advertisements
Track Severe Weather on mobile